sensor_id;sensor_type;location;lat;lon;timestamp;pressure;altitude;pressure_sealevel;temperature;humidity
46614;BME280;32338;50.430;6.806;2023-07-20T00:01:30;66951.91;;;14.06;100.00
46614;BME280;32338;50.430;6.806;2023-07-20T00:03:57;66953.81;;;14.03;100.00
46614;BME280;32338;50.430;6.806;2023-07-20T00:06:24;66954.00;;;14.05;100.00
46614;BME280;32338;50.430;6.806;2023-07-20T00:08:52;66957.78;;;14.06;100.00
46614;BME280;32338;50.430;6.806;2023-07-20T00:11:19;66962.88;;;14.11;100.00
46614;BME280;32338;50.430;6.806;2023-07-20T00:13:46;66967.94;;;14.16;100.00
46614;BME280;32338;50.430;6.806;2023-07-20T00:16:13;66969.25;;;14.19;100.00
46614;BME280;32338;50.430;6.806;2023-07-20T00:18:40;66978.69;;;14.25;100.00
46614;BME280;32338;50.430;6.806;2023-07-20T00:21:07;66978.88;;;14.28;100.00
46614;BME280;32338;50.430;6.806;2023-07-20T00:23:33;66982.09;;;14.29;100.00
46614;BME280;32338;50.430;6.806;2023-07-20T00:26:00;66991.50;;;14.42;100.00
46614;BME280;32338;50.430;6.806;2023-07-20T00:28:27;66985.84;;;14.37;100.00
46614;BME280;32338;50.430;6.806;2023-07-20T00:30:54;66987.16;;;14.33;100.00
46614;BME280;32338;50.430;6.806;2023-07-20T00:33:20;66996.41;;;14.44;100.00
46614;BME280;32338;50.430;6.806;2023-07-20T00:35:48;66992.44;;;14.40;100.00
46614;BME280;32338;50.430;6.806;2023-07-20T00:38:15;66993.38;;;14.39;100.00
46614;BME280;32338;50.430;6.806;2023-07-20T00:40:41;66991.31;;;14.39;100.00
46614;BME280;32338;50.430;6.806;2023-07-20T00:43:08;66993.38;;;14.39;100.00
46614;BME280;32338;50.430;6.806;2023-07-20T00:45:36;66996.41;;;14.44;100.00
46614;BME280;32338;50.430;6.806;2023-07-20T00:48:04;66996.94;;;14.44;100.00
46614;BME280;32338;50.430;6.806;2023-07-20T00:50:31;67000.16;;;14.45;100.00
46614;BME280;32338;50.430;6.806;2023-07-20T00:53:00;66995.25;;;14.43;100.00
46614;BME280;32338;50.430;6.806;2023-07-20T00:55:28;67002.81;;;14.45;100.00
46614;BME280;32338;50.430;6.806;2023-07-20T00:57:55;66993.56;;;14.41;100.00
46614;BME280;32338;50.430;6.806;2023-07-20T01:00:22;67000.72;;;14.46;100.00
46614;BME280;32338;50.430;6.806;2023-07-20T01:02:48;66993.00;;;14.41;100.00
46614;BME280;32338;50.430;6.806;2023-07-20T01:05:15;66997.53;;;14.45;100.00
46614;BME280;32338;50.430;6.806;2023-07-20T01:07:49;67002.41;;;14.47;100.00
46614;BME280;32338;50.430;6.806;2023-07-20T01:10:25;67001.66;;;14.44;100.00
46614;BME280;32338;50.430;6.806;2023-07-20T01:12:55;66996.41;;;14.44;100.00
46614;BME280;32338;50.430;6.806;2023-07-20T01:15:22;67007.13;;;14.54;100.00
46614;BME280;32338;50.430;6.806;2023-07-20T01:17:49;67007.13;;;14.54;100.00
46614;BME280;32338;50.430;6.806;2023-07-20T01:20:19;67015.97;;;14.59;100.00
46614;BME280;32338;50.430;6.806;2023-07-20T01:23:01;67002.63;;;14.50;100.00
46614;BME280;32338;50.430;6.806;2023-07-20T01:26:01;67006.75;;;14.56;100.00
46614;BME280;32338;50.430;6.806;2023-07-20T01:28:45;67007.13;;;14.54;100.00
46614;BME280;32338;50.430;6.806;2023-07-20T01:31:27;66996.03;;;14.46;100.00
46614;BME280;32338;50.430;6.806;2023-07-20T01:33:56;66996.94;;;14.44;100.00
46614;BME280;32338;50.430;6.806;2023-07-20T01:36:26;67001.50;;;14.49;100.00
46614;BME280;32338;50.430;6.806;2023-07-20T01:38:54;67002.03;;;14.49;100.00
46614;BME280;32338;50.430;6.806;2023-07-20T01:41:22;67009.78;;;14.54;100.00
46614;BME280;32338;50.430;6.806;2023-07-20T01:43:49;67018.06;;;14.59;100.00
46614;BME280;32338;50.430;6.806;2023-07-20T01:46:15;67003.72;;;14.51;100.00
46614;BME280;32338;50.430;6.806;2023-07-20T01:48:43;67008.47;;;14.57;100.00
46614;BME280;32338;50.430;6.806;2023-07-20T01:51:10;67006.75;;;14.56;100.00
46614;BME280;32338;50.430;6.806;2023-07-20T01:53:37;67012.78;;;14.59;100.00
46614;BME280;32338;50.430;6.806;2023-07-20T01:56:03;67012.03;;;14.56;100.00
46614;BME280;32338;50.430;6.806;2023-07-20T01:58:30;67005.63;;;14.55;100.00
46614;BME280;32338;50.430;6.806;2023-07-20T02:00:57;67011.09;;;14.50;100.00
46614;BME280;32338;50.430;6.806;2023-07-20T02:03:23;67001.84;;;14.47;100.00
46614;BME280;32338;50.430;6.806;2023-07-20T02:05:53;66999.22;;;14.47;100.00
46614;BME280;32338;50.430;6.806;2023-07-20T02:08:20;67003.34;;;14.46;100.00
46614;BME280;32338;50.430;6.806;2023-07-20T02:10:46;66999.03;;;14.44;100.00
46614;BME280;32338;50.430;6.806;2023-07-20T02:13:13;66999.78;;;14.47;100.00
46614;BME280;32338;50.430;6.806;2023-07-20T02:15:39;66977.91;;;14.30;100.00
46614;BME280;32338;50.430;6.806;2023-07-20T02:18:07;66966.25;;;14.14;100.00
46614;BME280;32338;50.430;6.806;2023-07-20T02:20:34;66962.47;;;14.13;100.00
46614;BME280;32338;50.430;6.806;2023-07-20T02:23:02;66959.09;;;14.10;100.00
46614;BME280;32338;50.430;6.806;2023-07-20T02:25:29;66956.66;;;14.13;100.00
46614;BME280;32338;50.430;6.806;2023-07-20T02:27:56;66970.38;;;14.20;100.00
46614;BME280;32338;50.430;6.806;2023-07-20T02:30:23;66977.53;;;14.24;100.00
46614;BME280;32338;50.430;6.806;2023-07-20T02:32:49;66965.69;;;14.14;100.00
46614;BME280;32338;50.430;6.806;2023-07-20T02:35:16;66958.91;;;14.07;100.00
46614;BME280;32338;50.430;6.806;2023-07-20T02:37:43;66950.03;;;14.02;100.00
46614;BME280;32338;50.430;6.806;2023-07-20T02:40:11;66950.81;;;14.05;100.00
46614;BME280;32338;50.430;6.806;2023-07-20T02:42:37;66949.84;;;13.99;100.00
46614;BME280;32338;50.430;6.806;2023-07-20T02:45:05;66951.16;;;13.95;100.00
46614;BME280;32338;50.430;6.806;2023-07-20T02:47:32;66931.59;;;13.87;100.00
46614;BME280;32338;50.430;6.806;2023-07-20T02:49:59;66933.84;;;13.89;100.00
46614;BME280;32338;50.430;6.806;2023-07-20T02:52:25;66934.22;;;13.87;100.00
46614;BME280;32338;50.430;6.806;2023-07-20T02:54:52;66943.66;;;13.93;100.00
46614;BME280;32338;50.430;6.806;2023-07-20T02:57:20;66946.47;;;13.96;100.00
46614;BME280;32338;50.430;6.806;2023-07-20T02:59:47;66947.97;;;13.95;100.00
46614;BME280;32338;50.430;6.806;2023-07-20T03:02:14;66941.19;;;13.89;100.00
46614;BME280;32338;50.430;6.806;2023-07-20T03:04:40;66934.78;;;13.88;100.00
46614;BME280;32338;50.430;6.806;2023-07-20T03:07:07;66931.59;;;13.80;100.00
46614;BME280;32338;50.430;6.806;2023-07-20T03:09:34;66921.22;;;13.75;100.00
46614;BME280;32338;50.430;6.806;2023-07-20T03:12:00;66934.03;;;13.85;100.00
46614;BME280;32338;50.430;6.806;2023-07-20T03:14:31;66927.63;;;13.84;100.00
46614;BME280;32338;50.430;6.806;2023-07-20T03:16:58;66912.38;;;13.70;100.00
46614;BME280;32338;50.430;6.806;2023-07-20T03:19:24;66906.91;;;13.60;100.00
46614;BME280;32338;50.430;6.806;2023-07-20T03:21:51;66903.16;;;13.59;100.00
46614;BME280;32338;50.430;6.806;2023-07-20T03:24:17;66899.00;;;13.53;100.00
46614;BME280;32338;50.430;6.806;2023-07-20T03:26:44;66895.44;;;13.47;100.00
46614;BME280;32338;50.430;6.806;2023-07-20T03:29:10;66887.13;;;13.42;100.00
46614;BME280;32338;50.430;6.806;2023-07-20T03:31:38;66878.50;;;13.39;100.00
46614;BME280;32338;50.430;6.806;2023-07-20T03:34:05;66878.66;;;13.34;100.00
46614;BME280;32338;50.430;6.806;2023-07-20T03:36:34;66872.63;;;13.31;100.00
46614;BME280;32338;50.430;6.806;2023-07-20T03:39:00;66871.50;;;13.30;100.00
46614;BME280;32338;50.430;6.806;2023-07-20T03:41:27;66864.72;;;13.24;100.00
46614;BME280;32338;50.430;6.806;2023-07-20T03:43:54;66858.72;;;13.21;100.00
46614;BME280;32338;50.430;6.806;2023-07-20T03:46:21;66874.13;;;13.30;100.00
46614;BME280;32338;50.430;6.806;2023-07-20T03:48:49;66872.06;;;13.30;100.00
46614;BME280;32338;50.430;6.806;2023-07-20T03:51:15;66856.06;;;13.13;100.00
46614;BME280;32338;50.430;6.806;2023-07-20T03:53:42;66836.28;;;12.95;100.00
46614;BME280;32338;50.430;6.806;2023-07-20T03:56:08;66834.59;;;12.94;100.00
46614;BME280;32338;50.430;6.806;2023-07-20T03:58:35;66834.78;;;12.96;100.00
46614;BME280;32338;50.430;6.806;2023-07-20T04:01:02;66838.91;;;12.95;100.00
46614;BME280;32338;50.430;6.806;2023-07-20T04:03:28;66831.41;;;12.93;100.00
46614;BME280;32338;50.430;6.806;2023-07-20T04:05:56;66842.50;;;13.01;100.00
46614;BME280;32338;50.430;6.806;2023-07-20T04:08:23;66835.91;;;12.97;100.00
46614;BME280;32338;50.430;6.806;2023-07-20T04:10:50;66839.50;;;12.96;100.00
46614;BME280;32338;50.430;6.806;2023-07-20T04:13:17;66825.78;;;12.88;100.00
46614;BME280;32338;50.430;6.806;2023-07-20T04:15:44;66833.09;;;12.95;100.00
46614;BME280;32338;50.430;6.806;2023-07-20T04:18:11;66830.84;;;12.93;100.00
46614;BME280;32338;50.430;6.806;2023-07-20T04:20:37;66829.69;;;12.92;100.00
46614;BME280;32338;50.430;6.806;2023-07-20T04:23:05;66822.19;;;12.82;100.00
46614;BME280;32338;50.430;6.806;2023-07-20T04:25:32;66813.91;;;12.77;100.00
46614;BME280;32338;50.430;6.806;2023-07-20T04:28:05;66822.75;;;12.83;100.00
46614;BME280;32338;50.430;6.806;2023-07-20T04:30:34;66812.59;;;12.81;100.00
46614;BME280;32338;50.430;6.806;2023-07-20T04:33:00;66826.88;;;12.89;100.00
46614;BME280;32338;50.430;6.806;2023-07-20T04:35:47;66837.06;;;12.98;100.00
46614;BME280;32338;50.430;6.806;2023-07-20T04:38:16;66850.59;;;13.04;100.00
46614;BME280;32338;50.430;6.806;2023-07-20T04:40:44;66845.53;;;13.06;100.00
46614;BME280;32338;50.430;6.806;2023-07-20T04:43:11;66855.31;;;13.10;100.00
46614;BME280;32338;50.430;6.806;2023-07-20T04:45:37;66852.84;;;13.13;100.00
46614;BME280;32338;50.430;6.806;2023-07-20T04:48:10;66855.69;;;13.16;100.00
46614;BME280;32338;50.430;6.806;2023-07-20T04:50:38;66855.50;;;13.13;100.00
46614;BME280;32338;50.430;6.806;2023-07-20T04:53:04;66861.13;;;13.18;100.00
46614;BME280;32338;50.430;6.806;2023-07-20T04:55:32;66859.63;;;13.12;100.00
46614;BME280;32338;50.430;6.806;2023-07-20T04:58:00;66842.53;;;13.08;100.00
46614;BME280;32338;50.430;6.806;2023-07-20T05:00:27;66830.47;;;12.95;100.00
46614;BME280;32338;50.430;6.806;2023-07-20T05:02:53;66846.47;;;13.05;100.00
46614;BME280;32338;50.430;6.806;2023-07-20T05:05:20;66844.97;;;13.06;100.00
46614;BME280;32338;50.430;6.806;2023-07-20T05:07:46;66855.88;;;13.18;100.00
46614;BME280;32338;50.430;6.806;2023-07-20T05:10:13;66875.28;;;13.31;100.00
46614;BME280;32338;50.430;6.806;2023-07-20T05:12:41;66878.28;;;13.36;100.00
46614;BME280;32338;50.430;6.806;2023-07-20T05:15:08;66897.31;;;13.51;100.00
46614;BME280;32338;50.430;6.806;2023-07-20T05:17:35;66904.66;;;13.58;100.00
46614;BME280;32338;50.430;6.806;2023-07-20T05:20:02;66915.94;;;13.68;100.00
46614;BME280;32338;50.430;6.806;2023-07-20T05:22:30;66921.22;;;13.75;100.00
46614;BME280;32338;50.430;6.806;2023-07-20T05:24:56;66936.69;;;13.85;100.00
46614;BME280;32338;50.430;6.806;2023-07-20T05:27:23;66939.31;;;13.92;100.00
46614;BME280;32338;50.430;6.806;2023-07-20T05:29:51;66950.44;;;14.00;100.00
46614;BME280;32338;50.430;6.806;2023-07-20T05:32:18;66951.94;;;13.99;100.00
46614;BME280;32338;50.430;6.806;2023-07-20T05:34:44;66947.78;;;14.00;100.00
46614;BME280;32338;50.430;6.806;2023-07-20T05:37:11;66944.94;;;13.97;100.00
46614;BME280;32338;50.430;6.806;2023-07-20T05:39:37;66945.16;;;14.00;100.00
46614;BME280;32338;50.430;6.806;2023-07-20T05:42:04;66961.34;;;14.12;100.00
46614;BME280;32338;50.430;6.806;2023-07-20T05:44:31;66951.91;;;14.06;100.00
46614;BME280;32338;50.430;6.806;2023-07-20T05:46:59;66957.97;;;14.09;100.00
46614;BME280;32338;50.430;6.806;2023-07-20T05:49:25;66952.31;;;14.04;100.00
46614;BME280;32338;50.430;6.806;2023-07-20T05:51:52;66951.00;;;14.00;100.00
46614;BME280;32338;50.430;6.806;2023-07-20T05:54:19;66944.94;;;13.97;100.00
46614;BME280;32338;50.430;6.806;2023-07-20T05:56:45;66939.88;;;13.92;100.00
46614;BME280;32338;50.430;6.806;2023-07-20T05:59:12;66943.06;;;13.93;100.00
46614;BME280;32338;50.430;6.806;2023-07-20T06:01:38;66951.19;;;14.03;100.00
46614;BME280;32338;50.430;6.806;2023-07-20T06:04:07;66949.84;;;13.99;100.00
46614;BME280;32338;50.430;6.806;2023-07-20T06:06:33;66963.78;;;14.09;100.00
46614;BME280;32338;50.430;6.806;2023-07-20T06:09:00;66950.63;;;14.02;100.00
46614;BME280;32338;50.430;6.806;2023-07-20T06:11:29;66949.31;;;13.99;100.00
46614;BME280;32338;50.430;6.806;2023-07-20T06:13:55;66949.31;;;13.99;100.00
46614;BME280;32338;50.430;6.806;2023-07-20T06:16:22;66951.72;;;14.03;100.00
46614;BME280;32338;50.430;6.806;2023-07-20T06:18:49;66962.28;;;14.10;100.00
46614;BME280;32338;50.430;6.806;2023-07-20T06:21:16;66963.97;;;14.12;100.00
46614;BME280;32338;50.430;6.806;2023-07-20T06:23:43;66980.00;;;14.22;100.00
46614;BME280;32338;50.430;6.806;2023-07-20T06:26:10;66994.69;;;14.42;100.00
46614;BME280;32338;50.430;6.806;2023-07-20T06:28:36;67010.53;;;14.57;100.00
46614;BME280;32338;50.430;6.806;2023-07-20T06:31:03;67024.50;;;14.67;100.00
46614;BME280;32338;50.430;6.806;2023-07-20T06:33:30;67039.19;;;14.81;100.00
46614;BME280;32338;50.430;6.806;2023-07-20T06:35:57;67048.63;;;14.87;100.00
46614;BME280;32338;50.430;6.806;2023-07-20T06:38:25;67061.06;;;14.98;100.00
46614;BME280;32338;50.430;6.806;2023-07-20T06:40:52;67069.94;;;15.11;100.00
46614;BME280;32338;50.430;6.806;2023-07-20T06:43:19;67075.97;;;15.14;100.00
46614;BME280;32338;50.430;6.806;2023-07-20T06:45:51;67075.41;;;15.14;100.00
46614;BME280;32338;50.430;6.806;2023-07-20T06:48:17;67051.81;;;14.95;100.00
46614;BME280;32338;50.430;6.806;2023-07-20T06:50:44;67043.72;;;14.85;100.00
46614;BME280;32338;50.430;6.806;2023-07-20T06:53:10;67044.09;;;14.90;100.00
46614;BME280;32338;50.430;6.806;2023-07-20T06:55:38;67057.09;;;15.02;100.00
46614;BME280;32338;50.430;6.806;2023-07-20T06:58:05;67084.25;;;15.19;100.00
46614;BME280;32338;50.430;6.806;2023-07-20T07:00:32;67095.19;;;15.32;100.00
46614;BME280;32338;50.430;6.806;2023-07-20T07:02:59;67105.94;;;15.42;100.00
46614;BME280;32338;50.430;6.806;2023-07-20T07:05:26;67119.13;;;15.56;100.00
46614;BME280;32338;50.430;6.806;2023-07-20T07:07:52;67133.84;;;15.69;100.00
46614;BME280;32338;50.430;6.806;2023-07-20T07:10:19;67133.28;;;15.69;100.00
46614;BME280;32338;50.430;6.806;2023-07-20T07:12:47;67137.44;;;15.75;100.00
46614;BME280;32338;50.430;6.806;2023-07-20T07:15:13;67156.91;;;15.88;100.00
46614;BME280;32338;50.430;6.806;2023-07-20T07:17:40;67159.53;;;15.95;100.00
46614;BME280;32338;50.430;6.806;2023-07-20T07:20:09;67162.75;;;15.96;100.00
46614;BME280;32338;50.430;6.806;2023-07-20T07:22:35;67178.78;;;16.13;100.00
46614;BME280;32338;50.430;6.806;2023-07-20T07:25:02;67194.63;;;16.27;100.00
46614;BME280;32338;50.430;6.806;2023-07-20T07:27:29;67186.50;;;16.17;100.00
46614;BME280;32338;50.430;6.806;2023-07-20T07:29:57;67193.88;;;16.24;100.00
46614;BME280;32338;50.430;6.806;2023-07-20T07:32:24;67224.81;;;16.50;100.00
46614;BME280;32338;50.430;6.806;2023-07-20T07:34:51;67221.81;;;16.45;100.00
46614;BME280;32338;50.430;6.806;2023-07-20T07:37:17;67232.19;;;16.57;100.00
46614;BME280;32338;50.430;6.806;2023-07-20T07:39:45;67219.34;;;16.47;100.00
46614;BME280;32338;50.430;6.806;2023-07-20T07:42:11;67219.75;;;16.45;100.00
46614;BME280;32338;50.430;6.806;2023-07-20T07:44:39;67215.00;;;16.46;100.00
46614;BME280;32338;50.430;6.806;2023-07-20T07:47:07;67210.28;;;16.39;100.00
46614;BME280;32338;50.430;6.806;2023-07-20T07:49:33;67194.44;;;16.25;100.00
46614;BME280;32338;50.430;6.806;2023-07-20T07:52:00;67187.81;;;16.21;100.00
46614;BME280;32338;50.430;6.806;2023-07-20T07:54:27;67195.56;;;16.18;100.00
46614;BME280;32338;50.430;6.806;2023-07-20T07:56:54;67185.22;;;16.14;100.00
46614;BME280;32338;50.430;6.806;2023-07-20T07:59:20;67179.16;;;16.11;100.00
46614;BME280;32338;50.430;6.806;2023-07-20T08:01:47;67193.47;;;16.26;100.00
46614;BME280;32338;50.430;6.806;2023-07-20T08:04:15;67207.47;;;16.36;100.00
46614;BME280;32338;50.430;6.806;2023-07-20T08:06:42;67231.06;;;16.56;100.00
46614;BME280;32338;50.430;6.806;2023-07-20T08:09:08;67245.78;;;16.69;100.00
46614;BME280;32338;50.430;6.806;2023-07-20T08:11:35;67261.63;;;16.83;100.00
46614;BME280;32338;50.430;6.806;2023-07-20T08:14:01;67268.63;;;16.92;100.00
46614;BME280;32338;50.430;6.806;2023-07-20T08:16:28;67274.31;;;16.97;100.00
46614;BME280;32338;50.430;6.806;2023-07-20T08:18:55;67283.56;;;17.08;100.00
46614;BME280;32338;50.430;6.806;2023-07-20T08:21:23;67277.91;;;17.03;100.00
46614;BME280;32338;50.430;6.806;2023-07-20T08:23:49;67267.13;;;16.93;100.00
46614;BME280;32338;50.430;6.806;2023-07-20T08:26:16;67269.22;;;16.93;100.00
46614;BME280;32338;50.430;6.806;2023-07-20T08:28:44;67262.22;;;16.84;100.00
46614;BME280;32338;50.430;6.806;2023-07-20T08:31:10;67269.78;;;16.93;100.00
46614;BME280;32338;50.430;6.806;2023-07-20T08:33:37;67271.09;;;16.97;100.00
46614;BME280;32338;50.430;6.806;2023-07-20T08:36:04;67302.09;;;17.23;100.00
46614;BME280;32338;50.430;6.806;2023-07-20T08:38:32;67316.41;;;17.38;100.00
46614;BME280;32338;50.430;6.806;2023-07-20T08:40:59;67349.13;;;17.65;100.00
46614;BME280;32338;50.430;6.806;2023-07-20T08:43:27;67368.38;;;17.83;100.00
46614;BME280;32338;50.430;6.806;2023-07-20T08:45:55;67401.47;;;18.15;100.00
46614;BME280;32338;50.430;6.806;2023-07-20T08:48:22;67402.63;;;18.09;100.00
46614;BME280;32338;50.430;6.806;2023-07-20T08:50:52;67379.34;;;17.95;100.00
46614;BME280;32338;50.430;6.806;2023-07-20T08:53:20;67363.66;;;17.76;100.00
46614;BME280;32338;50.430;6.806;2023-07-20T08:55:50;67364.97;;;17.80;100.00
46614;BME280;32338;50.430;6.806;2023-07-20T08:58:17;67374.22;;;17.91;100.00
46614;BME280;32338;50.430;6.806;2023-07-20T09:00:44;67400.16;;;18.12;100.00
46614;BME280;32338;50.430;6.806;2023-07-20T09:03:11;67408.84;;;18.22;100.00
46614;BME280;32338;50.430;6.806;2023-07-20T09:05:37;67432.47;;;18.41;100.00
46614;BME280;32338;50.430;6.806;2023-07-20T09:08:05;67421.69;;;18.31;100.00
46614;BME280;32338;50.430;6.806;2023-07-20T09:10:32;67405.63;;;18.14;100.00
46614;BME280;32338;50.430;6.806;2023-07-20T09:13:00;67402.59;;;18.17;100.00
46614;BME280;32338;50.430;6.806;2023-07-20T09:15:30;67412.03;;;18.23;100.00
46614;BME280;32338;50.430;6.806;2023-07-20T09:18:01;67416.59;;;18.27;100.00
46614;BME280;32338;50.430;6.806;2023-07-20T09:20:31;67436.06;;;18.47;100.00
46614;BME280;32338;50.430;6.806;2023-07-20T09:22:58;67464.97;;;18.73;100.00
46614;BME280;32338;50.430;6.806;2023-07-20T09:25:26;67494.91;;;18.98;100.00
46614;BME280;32338;50.430;6.806;2023-07-20T09:27:53;67487.50;;;18.91;96.27
46614;BME280;32338;50.430;6.806;2023-07-20T09:30:25;67511.91;;;19.14;95.96
46614;BME280;32338;50.430;6.806;2023-07-20T09:32:51;67511.53;;;19.16;95.15
46614;BME280;32338;50.430;6.806;2023-07-20T09:35:20;67526.66;;;19.27;93.87
46614;BME280;32338;50.430;6.806;2023-07-20T09:37:46;67538.75;;;19.40;98.69
46614;BME280;32338;50.430;6.806;2023-07-20T09:40:17;67542.56;;;19.41;95.17
46614;BME280;32338;50.430;6.806;2023-07-20T09:42:44;67547.84;;;19.49;91.96
46614;BME280;32338;50.430;6.806;2023-07-20T09:45:11;67569.00;;;19.70;94.60
46614;BME280;32338;50.430;6.806;2023-07-20T09:47:39;67602.75;;;19.96;91.04
46614;BME280;32338;50.430;6.806;2023-07-20T09:50:07;67575.09;;;19.73;87.65
46614;BME280;32338;50.430;6.806;2023-07-20T09:52:37;67553.91;;;19.52;89.08
46614;BME280;32338;50.430;6.806;2023-07-20T09:55:06;67554.28;;;19.57;90.54
46614;BME280;32338;50.430;6.806;2023-07-20T09:57:33;67544.06;;;19.40;92.21
46614;BME280;32338;50.430;6.806;2023-07-20T10:00:00;67550.31;;;19.46;95.90
46614;BME280;32338;50.430;6.806;2023-07-20T10:02:32;67548.59;;;19.52;94.99
46614;BME280;32338;50.430;6.806;2023-07-20T10:05:02;67575.66;;;19.74;100.00
46614;BME280;32338;50.430;6.806;2023-07-20T10:07:30;67581.31;;;19.79;96.08
46614;BME280;32338;50.430;6.806;2023-07-20T10:10:01;67581.16;;;19.76;94.36
46614;BME280;32338;50.430;6.806;2023-07-20T10:12:31;67565.81;;;19.63;92.49
46614;BME280;32338;50.430;6.806;2023-07-20T10:15:02;67563.34;;;19.65;87.88
46614;BME280;32338;50.430;6.806;2023-07-20T10:17:31;67566.97;;;19.64;89.29
46614;BME280;32338;50.430;6.806;2023-07-20T10:20:02;67575.13;;;19.66;88.89
46614;BME280;32338;50.430;6.806;2023-07-20T10:22:35;67530.81;;;19.33;87.35
46614;BME280;32338;50.430;6.806;2023-07-20T10:25:02;67531.38;;;19.34;87.98
46614;BME280;32338;50.430;6.806;2023-07-20T10:27:30;67530.25;;;19.33;87.00
46614;BME280;32338;50.430;6.806;2023-07-20T10:29:57;67550.13;;;19.51;87.49
46614;BME280;32338;50.430;6.806;2023-07-20T10:32:27;67532.53;;;19.35;87.04
46614;BME280;32338;50.430;6.806;2023-07-20T10:34:56;67519.88;;;19.21;88.89
46614;BME280;32338;50.430;6.806;2023-07-20T10:37:48;67521.38;;;19.20;87.89
46614;BME280;32338;50.430;6.806;2023-07-20T10:40:26;67535.75;;;19.35;91.20
46614;BME280;32338;50.430;6.806;2023-07-20T10:43:00;67539.53;;;19.36;90.99
46614;BME280;32338;50.430;6.806;2023-07-20T10:45:39;67542.16;;;19.43;90.74
46614;BME280;32338;50.430;6.806;2023-07-20T10:48:08;67562.59;;;19.62;94.56
46614;BME280;32338;50.430;6.806;2023-07-20T10:50:39;67576.78;;;19.75;87.36
46614;BME280;32338;50.430;6.806;2023-07-20T10:53:18;67580.00;;;19.75;87.72
46614;BME280;32338;50.430;6.806;2023-07-20T10:55:45;67586.47;;;19.84;90.40
46614;BME280;32338;50.430;6.806;2023-07-20T10:58:15;67584.38;;;19.77;88.14
46614;BME280;32338;50.430;6.806;2023-07-20T11:00:58;67602.38;;;19.98;91.44
46614;BME280;32338;50.430;6.806;2023-07-20T11:03:30;67609.91;;;20.07;85.78
46614;BME280;32338;50.430;6.806;2023-07-20T11:05:57;67597.81;;;19.94;86.38
46614;BME280;32338;50.430;6.806;2023-07-20T11:08:41;67603.72;;;19.95;83.13
46614;BME280;32338;50.430;6.806;2023-07-20T11:11:25;67594.41;;;19.91;81.70
46614;BME280;32338;50.430;6.806;2023-07-20T11:13:56;67589.88;;;19.87;87.32
46614;BME280;32338;50.430;6.806;2023-07-20T11:16:41;67570.75;;;19.65;83.50
46614;BME280;32338;50.430;6.806;2023-07-20T11:19:16;67563.16;;;19.63;85.46
46614;BME280;32338;50.430;6.806;2023-07-20T11:21:45;67567.13;;;19.66;86.97
46614;BME280;32338;50.430;6.806;2023-07-20T11:24:13;67579.06;;;19.77;89.36
46614;BME280;32338;50.430;6.806;2023-07-20T11:26:41;67583.44;;;19.79;85.51
46614;BME280;32338;50.430;6.806;2023-07-20T11:29:07;67579.44;;;19.75;83.21
46614;BME280;32338;50.430;6.806;2023-07-20T11:31:35;67557.28;;;19.62;81.96
46614;BME280;32338;50.430;6.806;2023-07-20T11:34:02;67583.25;;;19.76;82.41
46614;BME280;32338;50.430;6.806;2023-07-20T11:36:29;67574.16;;;19.68;78.50
46614;BME280;32338;50.430;6.806;2023-07-20T11:38:56;67567.13;;;19.66;81.01
46614;BME280;32338;50.430;6.806;2023-07-20T11:41:26;67586.81;;;19.82;81.11
46614;BME280;32338;50.430;6.806;2023-07-20T11:43:53;67566.00;;;19.65;78.59
46614;BME280;32338;50.430;6.806;2023-07-20T11:46:20;67578.91;;;19.74;80.84
46614;BME280;32338;50.430;6.806;2023-07-20T11:48:47;67590.44;;;19.87;80.83
46614;BME280;32338;50.430;6.806;2023-07-20T11:51:14;67596.69;;;19.93;84.92
46614;BME280;32338;50.430;6.806;2023-07-20T11:53:41;67581.50;;;19.82;82.78
46614;BME280;32338;50.430;6.806;2023-07-20T11:56:08;67612.59;;;20.07;83.82
46614;BME280;32338;50.430;6.806;2023-07-20T11:58:41;67614.88;;;20.09;84.23
46614;BME280;32338;50.430;6.806;2023-07-20T12:01:08;67598.41;;;19.95;82.41
46614;BME280;32338;50.430;6.806;2023-07-20T12:03:35;67603.53;;;19.92;84.15
46614;BME280;32338;50.430;6.806;2023-07-20T12:06:06;67591.97;;;19.86;85.84
46614;BME280;32338;50.430;6.806;2023-07-20T12:08:33;67583.81;;;19.84;85.19
46614;BME280;32338;50.430;6.806;2023-07-20T12:11:00;67585.91;;;19.83;85.33
46614;BME280;32338;50.430;6.806;2023-07-20T12:13:37;67581.91;;;19.80;89.02
46614;BME280;32338;50.430;6.806;2023-07-20T12:16:09;67580.00;;;19.75;89.81
46614;BME280;32338;50.430;6.806;2023-07-20T12:18:36;67564.31;;;19.64;88.27
46614;BME280;32338;50.430;6.806;2023-07-20T12:21:02;67559.00;;;19.56;89.40
46614;BME280;32338;50.430;6.806;2023-07-20T12:23:35;67551.66;;;19.50;88.70
46614;BME280;32338;50.430;6.806;2023-07-20T12:26:02;67549.94;;;19.48;90.94
46614;BME280;32338;50.430;6.806;2023-07-20T12:28:31;67554.66;;;19.55;90.37
46614;BME280;32338;50.430;6.806;2023-07-20T12:30:59;67543.88;;;19.45;85.95
46614;BME280;32338;50.430;6.806;2023-07-20T12:33:26;67553.34;;;19.51;88.64
46614;BME280;32338;50.430;6.806;2023-07-20T12:35:52;67563.75;;;19.63;87.96
46614;BME280;32338;50.430;6.806;2023-07-20T12:38:21;67575.66;;;19.74;87.29
46614;BME280;32338;50.430;6.806;2023-07-20T12:40:49;67583.81;;;19.84;86.04
46614;BME280;32338;50.430;6.806;2023-07-20T12:43:16;67588.56;;;19.83;83.92
46614;BME280;32338;50.430;6.806;2023-07-20T12:45:42;67576.78;;;19.75;82.13
46614;BME280;32338;50.430;6.806;2023-07-20T12:48:11;67580.78;;;19.79;88.76
46614;BME280;32338;50.430;6.806;2023-07-20T12:50:37;67585.69;;;19.88;86.10
46614;BME280;32338;50.430;6.806;2023-07-20T12:53:04;67575.66;;;19.74;77.57
46614;BME280;32338;50.430;6.806;2023-07-20T12:55:31;67561.47;;;19.61;76.07
46614;BME280;32338;50.430;6.806;2023-07-20T12:57:58;67576.63;;;19.72;79.48